Time;durP1;ratioP1;P1;durP2;ratioP2;P2;SDS_P1;SDS_P2;PMS_P1;PMS_P2;Temp;Humidity;BMP_temperature;BMP_pressure;BME280_temperature;BME280_humidity;BME280_pressure;Samples;Min_cycle;Max_cycle;Signal;HPM_P1;HPM_P2
2022/12/09 00:02:06;;;;;;;29.73;11.05;;;-0.50;99.90;;;;;;5054688;28;20045;-44
2022/12/09 00:04:32;;;;;;;42.03;9.95;;;-0.40;99.90;;;;;;5054908;28;20037;-44
2022/12/09 00:06:58;;;;;;;62.22;10.50;;;-0.60;99.90;;;;;;5054786;28;20037;-45
2022/12/09 00:09:24;;;;;;;42.15;11.18;;;-0.50;99.90;;;;;;5054794;28;20052;-43
2022/12/09 00:11:51;;;;;;;35.53;9.32;;;-0.60;99.90;;;;;;5054888;28;20028;-44
2022/12/09 00:14:17;;;;;;;45.17;9.90;;;-0.40;99.90;;;;;;5054471;28;20045;-43
2022/12/09 00:16:43;;;;;;;52.35;9.50;;;-0.30;99.90;;;;;;5054493;28;20048;-43
2022/12/09 00:19:08;;;;;;;35.70;7.88;;;-0.60;99.90;;;;;;5054249;28;20041;-43
2022/12/09 00:21:34;;;;;;;40.38;8.93;;;-0.30;99.90;;;;;;5036526;28;20124;-44
2022/12/09 00:24:03;;;;;;;62.30;10.13;;;-0.60;99.90;;;;;;5054323;28;20069;-44
2022/12/09 00:26:30;;;;;;;37.50;7.68;;;-0.60;99.90;;;;;;5036830;28;20386;-44
2022/12/09 00:28:56;;;;;;;36.33;8.07;;;-0.60;99.90;;;;;;5053342;28;20194;-44
2022/12/09 00:31:23;;;;;;;63.15;10.05;;;-0.70;99.90;;;;;;5054366;28;20524;-43
2022/12/09 00:33:50;;;;;;;72.90;11.52;;;-0.80;99.90;;;;;;5053872;28;20053;-43
2022/12/09 00:36:19;;;;;;;45.65;9.23;;;-0.90;99.90;;;;;;5054186;28;20053;-44
2022/12/09 00:38:45;;;;;;;38.35;8.75;;;-0.90;99.90;;;;;;5053871;28;20497;-43
2022/12/09 00:41:12;;;;;;;22.83;8.45;;;-1.00;99.90;;;;;;5036233;28;20037;-44
2022/12/09 00:43:38;;;;;;;37.75;8.43;;;-0.90;99.90;;;;;;5054231;28;20033;-43
2022/12/09 00:46:04;;;;;;;32.92;9.27;;;-0.70;99.90;;;;;;5053943;28;20044;-45
2022/12/09 00:48:30;;;;;;;41.88;9.27;;;-0.90;99.90;;;;;;5053771;28;20500;-44
2022/12/09 00:50:56;;;;;;;26.90;7.82;;;-0.80;99.90;;;;;;5054105;28;20049;-43
2022/12/09 00:53:22;;;;;;;30.73;8.98;;;-0.80;99.90;;;;;;5054082;28;20037;-44
2022/12/09 00:55:47;;;;;;;31.10;8.93;;;-0.70;99.90;;;;;;5054561;28;20033;-44
2022/12/09 00:58:13;;;;;;;26.70;8.55;;;-0.70;99.90;;;;;;5035896;28;20534;-43
2022/12/09 01:00:39;;;;;;;41.70;10.18;;;-0.80;99.90;;;;;;5053999;28;20033;-43
2022/12/09 01:03:05;;;;;;;37.63;8.77;;;-0.70;99.90;;;;;;5053605;28;20037;-44
2022/12/09 01:05:34;;;;;;;19.23;9.38;;;-0.90;99.90;;;;;;5053778;28;20504;-43
2022/12/09 01:07:59;;;;;;;24.33;9.38;;;-0.70;99.90;;;;;;5053601;28;20580;-44
2022/12/09 01:10:25;;;;;;;14.65;8.57;;;-0.70;99.90;;;;;;5053433;28;20056;-44
2022/12/09 01:12:51;;;;;;;23.38;9.60;;;-0.80;99.90;;;;;;5053720;28;20041;-44
2022/12/09 01:15:16;;;;;;;23.60;8.88;;;-0.90;99.90;;;;;;5035551;28;20045;-44
2022/12/09 01:17:42;;;;;;;20.30;9.32;;;-0.90;99.90;;;;;;5053310;28;20037;-45
2022/12/09 01:20:09;;;;;;;46.97;9.63;;;-0.90;99.90;;;;;;5053304;28;20048;-53
2022/12/09 01:22:35;;;;;;;45.72;10.00;;;-0.90;99.90;;;;;;5053358;28;20045;-44
2022/12/09 01:25:01;;;;;;;24.45;9.02;;;-0.80;99.90;;;;;;5053444;28;20401;-43
2022/12/09 01:27:29;;;;;;;23.40;9.55;;;-0.90;99.90;;;;;;5053353;28;20033;-43
2022/12/09 01:29:55;;;;;;;42.85;8.95;;;-0.80;99.90;;;;;;5052987;28;20047;-43
2022/12/09 01:32:21;;;;;;;17.75;8.43;;;-1.00;99.90;;;;;;5035371;28;20124;-43
2022/12/09 01:34:46;;;;;;;16.13;9.15;;;-1.00;99.90;;;;;;5053097;28;20440;-43
2022/12/09 01:37:12;;;;;;;14.07;8.25;;;-1.30;99.90;;;;;;5052904;28;20037;-43
2022/12/09 01:39:38;;;;;;;15.50;8.85;;;-1.10;99.90;;;;;;5034651;28;20044;-44
2022/12/09 01:42:04;;;;;;;16.00;9.32;;;-1.10;99.90;;;;;;5035212;28;20041;-43
2022/12/09 01:44:31;;;;;;;18.15;8.88;;;-1.10;99.90;;;;;;5035218;28;20041;-43
2022/12/09 01:47:00;;;;;;;20.98;8.48;;;-1.10;99.90;;;;;;5052791;28;20045;-43
2022/12/09 01:49:37;;;;;;;15.93;8.43;;;-1.20;99.90;;;;;;5052695;28;20049;-43
2022/12/09 01:52:12;;;;;;;16.55;8.90;;;-1.30;99.90;;;;;;5052718;28;20102;-43
2022/12/09 01:54:42;;;;;;;17.73;9.60;;;-1.30;99.90;;;;;;5052789;28;20041;-43
2022/12/09 01:57:08;;;;;;;16.05;9.38;;;-1.40;99.90;;;;;;5037164;28;20047;-43
2022/12/09 01:59:34;;;;;;;17.20;9.82;;;-1.20;99.90;;;;;;5032413;28;20452;-43
2022/12/09 02:02:02;;;;;;;19.67;10.20;;;-1.30;99.90;;;;;;5032876;28;20045;-43
2022/12/09 02:04:32;;;;;;;17.55;9.95;;;-1.20;99.90;;;;;;5032576;28;20045;-43
2022/12/09 02:07:00;;;;;;;16.73;8.88;;;-1.10;99.90;;;;;;5032562;28;20398;-43
2022/12/09 02:09:25;;;;;;;17.55;10.05;;;-1.10;99.90;;;;;;5032390;28;20083;-43
2022/12/09 02:12:08;;;;;;;16.75;10.07;;;-1.30;99.90;;;;;;5015184;28;20072;-44
2022/12/09 02:14:43;;;;;;;;;;;-1.50;99.90;;;;;;5015206;28;20052;-44
2022/12/09 02:17:30;;;;;;;19.27;10.63;;;-1.40;99.90;;;;;;5032658;28;19917;-43
2022/12/09 02:20:19;;;;;;;16.98;10.18;;;-1.60;99.90;;;;;;5032279;28;20128;-43
2022/12/09 02:22:49;;;;;;;18.45;9.38;;;-1.50;99.90;;;;;;5032409;28;20584;-43
2022/12/09 02:25:37;;;;;;;18.52;10.88;;;-1.50;99.90;;;;;;5032284;28;20049;-45
2022/12/09 02:28:41;;;;;;;19.83;11.05;;;-1.30;99.90;;;;;;5032249;28;20095;-43
2022/12/09 02:31:40;;;;;;;19.83;10.80;;;-1.30;99.90;;;;;;5032192;28;20049;-43
2022/12/09 02:34:20;;;;;;;18.65;10.40;;;-1.30;99.90;;;;;;5032205;28;20391;-43
2022/12/09 02:36:57;;;;;;;19.70;11.32;;;-1.30;99.90;;;;;;5032124;28;20081;-44
2022/12/09 02:39:30;;;;;;;20.38;10.40;;;-1.60;99.90;;;;;;5032032;28;20049;-43
2022/12/09 02:41:57;;;;;;;25.00;11.52;;;-1.40;99.90;;;;;;5032229;28;20125;-44
2022/12/09 02:44:24;;;;;;;22.35;11.20;;;-1.60;99.90;;;;;;5032419;28;20397;-44
2022/12/09 02:46:52;;;;;;;21.92;12.07;;;-1.50;99.90;;;;;;5014816;28;20433;-44
2022/12/09 02:49:20;;;;;;;25.65;11.45;;;-1.40;99.90;;;;;;5032268;28;20053;-44
2022/12/09 02:51:48;;;;;;;21.80;10.60;;;-1.40;99.90;;;;;;5033610;28;20073;-44
2022/12/09 02:54:16;;;;;;;23.92;12.20;;;-1.30;99.90;;;;;;5036058;28;20502;-44
2022/12/09 02:56:48;;;;;;;23.40;11.35;;;-1.40;99.90;;;;;;5047340;28;20072;-45
2022/12/09 02:59:14;;;;;;;23.42;11.07;;;-1.40;99.90;;;;;;5038049;28;20485;-43
2022/12/09 03:01:44;;;;;;;23.95;10.90;;;-1.40;99.90;;;;;;5055874;28;20116;-45
2022/12/09 03:04:16;;;;;;;23.52;11.52;;;-1.30;99.90;;;;;;5037941;28;20127;-44
2022/12/09 03:06:48;;;;;;;23.63;11.68;;;-1.40;99.90;;;;;;5056062;28;20397;-44
2022/12/09 03:09:19;;;;;;;26.05;13.38;;;-1.50;99.90;;;;;;5056089;28;20048;-44
2022/12/09 03:11:46;;;;;;;23.15;10.80;;;-1.30;99.90;;;;;;5055810;28;20440;-44
2022/12/09 03:14:21;;;;;;;24.08;12.40;;;-1.40;99.90;;;;;;5055782;28;20041;-43
2022/12/09 03:16:59;;;;;;;26.63;12.25;;;-1.40;99.90;;;;;;5055837;28;20079;-44
2022/12/09 03:19:28;;;;;;;25.02;12.18;;;-1.30;99.90;;;;;;5055554;28;20041;-43
2022/12/09 03:21:57;;;;;;;25.38;12.40;;;-1.20;99.90;;;;;;5055503;28;20040;-43
2022/12/09 03:24:28;;;;;;;27.30;12.98;;;-1.30;99.90;;;;;;5037556;28;20043;-44
2022/12/09 03:26:54;;;;;;;27.15;13.15;;;-1.20;99.90;;;;;;5055792;28;20049;-44
2022/12/09 03:29:24;;;;;;;23.70;11.73;;;-1.20;99.90;;;;;;5055745;28;20101;-43
2022/12/09 03:31:53;;;;;;;26.83;12.50;;;-1.20;99.90;;;;;;5055556;28;20056;-44
2022/12/09 03:34:23;;;;;;;25.58;11.65;;;-1.20;99.90;;;;;;5033902;28;20516;-44
2022/12/09 03:36:51;;;;;;;24.20;11.50;;;-1.20;99.90;;;;;;5035358;28;20135;-43
2022/12/09 03:39:23;;;;;;;26.35;12.38;;;-1.10;99.90;;;;;;5035274;28;20037;-43
2022/12/09 03:41:54;;;;;;;26.67;12.27;;;-1.10;99.90;;;;;;5035438;28;20041;-43
2022/12/09 03:44:47;;;;;;;24.85;11.88;;;-1.20;99.90;;;;;;5035197;28;20039;-43
2022/12/09 03:47:12;;;;;;;29.10;12.95;;;-1.10;99.90;;;;;;5035089;28;20108;-43
2022/12/09 03:49:39;;;;;;;26.92;12.38;;;-1.20;99.90;;;;;;5035135;28;20475;-43
2022/12/09 03:52:14;;;;;;;28.15;11.60;;;-1.10;99.90;;;;;;5035343;28;20037;-44
2022/12/09 03:54:46;;;;;;;26.58;12.77;;;-1.10;99.90;;;;;;5035309;28;20110;-43
2022/12/09 03:57:15;;;;;;;25.50;11.80;;;-1.20;99.90;;;;;;5019502;28;20049;-44
2022/12/09 03:59:44;;;;;;;22.55;11.02;;;-1.10;99.90;;;;;;5015263;28;20211;-43
2022/12/09 04:02:10;;;;;;;23.17;11.35;;;-1.10;99.90;;;;;;5015050;28;20052;-44
2022/12/09 04:04:39;;;;;;;23.25;11.20;;;-1.00;99.90;;;;;;5014969;28;20490;-45
2022/12/09 04:07:05;;;;;;;24.60;11.43;;;-1.10;99.90;;;;;;5015235;28;20368;-44
2022/12/09 04:09:31;;;;;;;28.30;13.52;;;-1.10;99.90;;;;;;5015104;28;20055;-44
2022/12/09 04:11:57;;;;;;;24.92;12.52;;;-1.00;99.90;;;;;;5014897;28;20311;-43
2022/12/09 04:14:23;;;;;;;25.55;11.73;;;-1.00;99.90;;;;;;5014853;28;20042;-43
2022/12/09 04:16:48;;;;;;;21.65;11.05;;;-1.00;99.90;;;;;;5014983;28;20034;-46
2022/12/09 04:19:14;;;;;;;22.65;11.20;;;-1.10;99.90;;;;;;5014918;28;20046;-43
2022/12/09 04:21:40;;;;;;;24.75;11.82;;;-1.10;99.90;;;;;;5014987;28;20045;-43
2022/12/09 04:24:06;;;;;;;23.27;12.27;;;-1.00;99.90;;;;;;5014842;28;20040;-43
2022/12/09 04:26:32;;;;;;;23.85;10.85;;;-1.10;99.90;;;;;;5014722;28;20092;-44
2022/12/09 04:28:58;;;;;;;26.85;11.55;;;-1.10;99.90;;;;;;5015043;28;20382;-43
2022/12/09 04:31:24;;;;;;;21.23;11.23;;;-1.20;99.90;;;;;;5013581;28;20045;-43
2022/12/09 04:33:49;;;;;;;25.08;11.00;;;-1.10;99.90;;;;;;5025847;28;20092;-43
2022/12/09 04:36:17;;;;;;;21.30;10.68;;;-1.20;99.90;;;;;;5034251;28;20044;-43
2022/12/09 04:38:44;;;;;;;25.45;10.68;;;-1.10;99.90;;;;;;5034213;28;20069;-43
2022/12/09 04:41:10;;;;;;;23.23;11.07;;;-1.10;99.90;;;;;;5034226;28;20041;-43
2022/12/09 04:43:36;;;;;;;26.42;12.02;;;-1.30;99.90;;;;;;5034018;28;20466;-43
2022/12/09 04:46:04;;;;;;;22.38;10.52;;;-1.20;99.90;;;;;;5034446;28;20044;-44
2022/12/09 04:48:30;;;;;;;22.52;11.48;;;-1.30;99.90;;;;;;5033996;28;20049;-44
2022/12/09 04:50:56;;;;;;;24.85;11.38;;;-1.20;99.90;;;;;;5034367;28;20430;-42
2022/12/09 04:53:23;;;;;;;21.00;11.23;;;-1.30;99.90;;;;;;5016178;28;20397;-43
2022/12/09 04:55:48;;;;;;;23.17;11.43;;;-1.30;99.90;;;;;;5038006;28;20044;-43
2022/12/09 04:58:14;;;;;;;21.58;10.18;;;-1.30;99.90;;;;;;5053516;28;20040;-42
2022/12/09 05:00:40;;;;;;;22.98;11.48;;;-1.20;99.90;;;;;;5053742;28;20128;-43
2022/12/09 05:03:05;;;;;;;22.58;11.20;;;-1.30;99.90;;;;;;5053894;28;20122;-42
2022/12/09 05:05:31;;;;;;;24.40;11.90;;;-1.30;99.90;;;;;;5053670;28;20037;-44
2022/12/09 05:07:56;;;;;;;24.55;11.60;;;-1.20;99.90;;;;;;5053584;28;20396;-42
2022/12/09 05:10:22;;;;;;;25.80;11.25;;;-1.30;99.90;;;;;;5053450;28;20503;-42
2022/12/09 05:12:48;;;;;;;23.33;11.80;;;-1.20;99.90;;;;;;5035666;28;20124;-43
2022/12/09 05:15:14;;;;;;;23.95;11.35;;;-1.20;99.90;;;;;;5052944;28;20068;-43
2022/12/09 05:17:39;;;;;;;27.42;12.90;;;-1.40;99.90;;;;;;5053376;28;20045;-42
2022/12/09 05:20:06;;;;;;;25.60;11.98;;;-1.30;99.90;;;;;;5053507;28;20067;-43
2022/12/09 05:22:31;;;;;;;29.58;12.48;;;-1.30;99.90;;;;;;5053531;28;20087;-43
2022/12/09 05:24:57;;;;;;;26.65;12.30;;;-1.20;99.90;;;;;;5053249;28;20041;-43
2022/12/09 05:27:23;;;;;;;26.80;11.88;;;-1.20;99.90;;;;;;5053096;28;20094;-43
2022/12/09 05:29:48;;;;;;;25.42;12.70;;;-1.20;99.90;;;;;;5053438;28;20094;-43
2022/12/09 05:32:14;;;;;;;25.13;12.73;;;-1.20;99.90;;;;;;5053344;28;20040;-44
2022/12/09 05:34:40;;;;;;;26.90;11.93;;;-1.30;99.90;;;;;;5052828;28;20045;-43
2022/12/09 05:37:13;;;;;;;25.77;11.75;;;-1.30;99.90;;;;;;5053269;28;20045;-43
2022/12/09 05:39:38;;;;;;;27.33;11.73;;;-1.20;99.90;;;;;;5052820;28;20044;-43
2022/12/09 05:42:04;;;;;;;28.83;11.65;;;-1.40;99.90;;;;;;5035129;28;20078;-44
2022/12/09 05:44:29;;;;;;;26.25;11.98;;;-1.30;99.90;;;;;;5052760;28;20124;-43
2022/12/09 05:46:56;;;;;;;25.85;11.45;;;-1.30;99.90;;;;;;5053109;28;20036;-44
2022/12/09 05:49:21;;;;;;;27.80;12.70;;;-1.30;99.90;;;;;;5035184;28;20041;-44
2022/12/09 05:51:47;;;;;;;27.77;12.30;;;-1.30;99.90;;;;;;5034909;28;20090;-43
2022/12/09 05:54:13;;;;;;;27.17;12.18;;;-1.40;99.90;;;;;;5052603;28;20044;-43
2022/12/09 05:56:38;;;;;;;27.42;12.68;;;-1.20;99.90;;;;;;5034781;28;20057;-43
2022/12/09 05:59:04;;;;;;;27.88;12.68;;;-1.30;99.90;;;;;;5052396;28;20041;-45
2022/12/09 06:01:30;;;;;;;26.30;12.50;;;-1.40;99.90;;;;;;5052679;28;20044;-45
2022/12/09 06:03:56;;;;;;;25.00;12.75;;;-1.30;99.90;;;;;;5052529;28;20072;-44
2022/12/09 06:06:26;;;;;;;27.50;12.40;;;-1.20;99.90;;;;;;5052650;28;20040;-44
2022/12/09 06:08:57;;;;;;;24.02;11.93;;;-1.30;99.90;;;;;;5052406;28;20056;-44
2022/12/09 06:11:24;;;;;;;26.42;12.43;;;-1.40;99.90;;;;;;5052441;28;20044;-43
2022/12/09 06:13:50;;;;;;;25.30;12.30;;;-1.30;99.90;;;;;;5052629;28;20446;-44
2022/12/09 06:16:18;;;;;;;27.42;12.70;;;-1.30;99.90;;;;;;5034822;28;20041;-43
2022/12/09 06:18:44;;;;;;;29.35;12.85;;;-1.40;99.90;;;;;;5052156;28;20036;-43
2022/12/09 06:21:12;;;;;;;27.92;13.77;;;-1.30;99.90;;;;;;5052290;28;20143;-44
2022/12/09 06:23:40;;;;;;;28.30;13.70;;;-1.40;99.90;;;;;;5052425;28;20037;-44
2022/12/09 06:26:06;;;;;;;28.60;12.43;;;-1.20;99.90;;;;;;5034244;28;20568;-43
2022/12/09 06:28:32;;;;;;;28.60;13.73;;;-1.10;99.90;;;;;;5052125;28;20044;-43
2022/12/09 06:30:57;;;;;;;30.95;13.90;;;-1.30;99.90;;;;;;5048344;28;20478;-43
2022/12/09 06:33:23;;;;;;;27.15;13.27;;;-1.30;99.90;;;;;;5041208;28;20110;-44
2022/12/09 06:35:49;;;;;;;28.48;12.15;;;-1.20;99.90;;;;;;5017735;28;20053;-43
2022/12/09 06:38:15;;;;;;;29.15;13.07;;;-1.00;99.90;;;;;;5031493;28;20394;-43
2022/12/09 06:40:41;;;;;;;28.75;14.20;;;-1.10;99.90;;;;;;5031212;28;20444;-43
2022/12/09 06:43:07;;;;;;;24.38;11.35;;;-1.00;99.90;;;;;;5013189;28;20046;-44
2022/12/09 06:45:35;;;;;;;27.63;12.82;;;-1.10;99.90;;;;;;5031214;28;20193;-43
2022/12/09 06:48:01;;;;;;;29.80;13.15;;;-1.10;99.90;;;;;;5039820;28;20076;-44
2022/12/09 06:50:26;;;;;;;27.15;12.50;;;-1.10;99.90;;;;;;5042322;28;20604;-43
2022/12/09 06:52:52;;;;;;;26.48;14.20;;;-1.20;99.90;;;;;;5051450;28;20064;-45
2022/12/09 06:55:18;;;;;;;27.67;13.85;;;-1.00;99.90;;;;;;5049397;28;20406;-45
2022/12/09 06:57:43;;;;;;;26.60;13.55;;;-1.10;99.90;;;;;;5042779;28;20132;-44
2022/12/09 07:00:09;;;;;;;27.13;12.45;;;-1.20;99.90;;;;;;5040002;28;20052;-44
2022/12/09 07:02:35;;;;;;;27.88;12.68;;;-1.20;99.90;;;;;;5050883;28;20477;-44
2022/12/09 07:05:01;;;;;;;27.30;13.35;;;-1.10;99.90;;;;;;5051126;28;20124;-44
2022/12/09 07:07:27;;;;;;;29.83;13.35;;;-1.20;99.90;;;;;;5051025;28;20041;-44
2022/12/09 07:09:52;;;;;;;27.95;12.88;;;-1.10;99.90;;;;;;5051047;28;20072;-45
2022/12/09 07:12:18;;;;;;;29.80;13.73;;;-1.10;99.90;;;;;;5050993;28;20045;-45
2022/12/09 07:14:43;;;;;;;30.42;15.55;;;-1.20;99.90;;;;;;5051077;28;20465;-45
2022/12/09 07:17:17;;;;;;;30.45;14.85;;;-1.10;99.90;;;;;;5033383;28;20073;-45
2022/12/09 07:19:43;;;;;;;32.70;14.18;;;-1.00;99.90;;;;;;5050927;28;20037;-44
2022/12/09 07:22:09;;;;;;;29.90;15.15;;;-1.40;99.90;;;;;;5050727;28;20037;-45
2022/12/09 07:24:37;;;;;;;33.28;15.18;;;-1.30;99.90;;;;;;5050692;28;20046;-45
2022/12/09 07:27:07;;;;;;;32.78;15.40;;;-1.40;99.90;;;;;;5050776;28;20124;-45
2022/12/09 07:29:34;;;;;;;32.78;14.07;;;-1.10;99.90;;;;;;5050704;28;20076;-44
2022/12/09 07:31:59;;;;;;;26.73;11.45;;;-1.20;99.90;;;;;;5050650;28;20561;-45
2022/12/09 07:34:25;;;;;;;27.15;12.45;;;-1.10;99.90;;;;;;5050295;28;20172;-44
2022/12/09 07:36:51;;;;;;;30.77;14.00;;;-1.10;99.90;;;;;;5050658;28;20041;-46
2022/12/09 07:39:17;;;;;;;32.10;14.15;;;-1.10;99.90;;;;;;5054171;28;20124;-44
2022/12/09 07:41:43;;;;;;;26.77;12.65;;;-1.20;99.90;;;;;;5036558;28;20037;-44
2022/12/09 07:44:10;;;;;;;29.23;13.20;;;-1.10;99.90;;;;;;5054010;28;20528;-44
2022/12/09 07:46:37;;;;;;;29.20;13.93;;;-1.10;99.90;;;;;;5053634;28;20029;-44
2022/12/09 07:49:04;;;;;;;31.42;13.75;;;-1.10;99.90;;;;;;5054073;28;20135;-44
2022/12/09 07:51:30;;;;;;;33.92;15.02;;;-1.20;99.90;;;;;;5035695;28;20552;-45
2022/12/09 07:53:56;;;;;;;30.08;14.48;;;-1.20;99.90;;;;;;5053886;28;20045;-46
2022/12/09 07:56:23;;;;;;;31.35;14.32;;;-1.20;99.90;;;;;;5026978;28;20512;-44
2022/12/09 07:58:53;;;;;;;33.85;14.90;;;-1.00;99.90;;;;;;5033936;28;20046;-44
2022/12/09 08:01:24;;;;;;;35.20;14.77;;;-1.10;99.90;;;;;;5033709;28;20034;-45
2022/12/09 08:03:50;;;;;;;35.40;15.00;;;-1.10;99.90;;;;;;5034155;28;20592;-44
2022/12/09 08:06:19;;;;;;;40.25;13.80;;;-1.10;99.90;;;;;;5033399;28;20033;-45
2022/12/09 08:08:46;;;;;;;29.33;14.30;;;-1.20;99.90;;;;;;5033731;28;20048;-44
2022/12/09 08:11:23;;;;;;;32.63;14.27;;;-0.90;99.90;;;;;;5033588;28;20037;-44
2022/12/09 08:13:49;;;;;;;32.42;14.95;;;-1.20;99.90;;;;;;5033857;28;20124;-44
2022/12/09 08:16:18;;;;;;;29.45;14.35;;;-1.10;99.90;;;;;;5033644;28;20114;-45
2022/12/09 08:18:44;;;;;;;32.30;13.07;;;-1.20;99.90;;;;;;5033559;28;20046;-45
2022/12/09 08:21:17;;;;;;;31.67;14.80;;;-1.10;99.90;;;;;;5033454;28;20034;-44
2022/12/09 08:23:43;;;;;;;33.45;15.15;;;-0.80;99.90;;;;;;5033881;28;20112;-44
2022/12/09 08:26:10;;;;;;;33.60;14.80;;;-0.80;99.90;;;;;;5033642;28;20042;-43
2022/12/09 08:28:36;;;;;;;38.33;18.15;;;-0.70;99.90;;;;;;5015936;28;20283;-45
2022/12/09 08:31:07;;;;;;;33.58;15.70;;;-0.60;99.90;;;;;;5033236;28;20045;-44
2022/12/09 08:33:33;;;;;;;36.33;17.83;;;-0.80;99.90;;;;;;5033013;28;20053;-45
2022/12/09 08:36:00;;;;;;;35.78;16.83;;;-0.60;99.90;;;;;;5033360;28;20095;-45
2022/12/09 08:38:26;;;;;;;36.67;17.02;;;-0.70;99.90;;;;;;5033538;28;20057;-44
2022/12/09 08:40:51;;;;;;;39.20;17.60;;;-0.80;99.90;;;;;;5038474;28;20386;-45
2022/12/09 08:43:17;;;;;;;34.13;16.52;;;-0.60;99.90;;;;;;5053491;28;20393;-48
2022/12/09 08:45:42;;;;;;;32.63;15.93;;;-0.50;99.90;;;;;;5053363;28;20554;-46
2022/12/09 08:48:08;;;;;;;36.50;17.88;;;-0.60;99.90;;;;;;5053310;28;20430;-45
2022/12/09 08:50:34;;;;;;;38.15;18.98;;;-0.60;99.90;;;;;;5034059;28;20175;-45
2022/12/09 08:53:00;;;;;;;39.83;19.58;;;-0.30;99.90;;;;;;5052956;28;20040;-44
2022/12/09 08:55:26;;;;;;;40.55;17.50;;;-0.30;99.90;;;;;;5034711;28;20045;-45
2022/12/09 08:57:52;;;;;;;40.40;18.05;;;-0.20;99.90;;;;;;5052750;28;20052;-44
2022/12/09 09:00:19;;;;;;;38.50;18.83;;;-0.10;99.90;;;;;;5053031;28;20033;-44
2022/12/09 09:02:44;;;;;;;38.75;19.13;;;-0.10;99.90;;;;;;5052980;28;20037;-45
2022/12/09 09:05:10;;;;;;;37.35;18.30;;;-0.20;99.90;;;;;;5053039;28;20468;-48
2022/12/09 09:07:37;;;;;;;39.65;19.58;;;0.20;99.90;;;;;;5052493;28;20428;-47
2022/12/09 09:10:03;;;;;;;37.85;19.20;;;0.20;99.90;;;;;;5052576;28;20048;-51
2022/12/09 09:12:29;;;;;;;39.33;19.55;;;0.20;99.90;;;;;;5052823;28;20043;-48
2022/12/09 09:14:55;;;;;;;38.47;19.92;;;0.20;99.90;;;;;;5052877;28;20040;-45
2022/12/09 09:17:21;;;;;;;40.67;19.50;;;0.10;99.90;;;;;;5052374;28;20456;-47
2022/12/09 09:19:47;;;;;;;42.90;20.38;;;0.00;99.90;;;;;;5052520;28;20041;-45
2022/12/09 09:22:13;;;;;;;40.40;18.85;;;0.10;99.90;;;;;;5052220;28;20043;-46
2022/12/09 09:24:39;;;;;;;40.13;21.05;;;0.10;99.90;;;;;;5052511;28;20037;-46
2022/12/09 09:27:04;;;;;;;36.83;18.60;;;0.00;99.90;;;;;;5052099;28;20378;-45
2022/12/09 09:29:33;;;;;;;38.88;20.65;;;0.10;99.90;;;;;;5052105;28;20131;-46
2022/12/09 09:31:59;;;;;;;39.42;19.17;;;0.30;99.90;;;;;;5052122;28;20045;-45
2022/12/09 09:34:26;;;;;;;38.40;18.52;;;0.40;99.90;;;;;;5051710;28;20106;-45
2022/12/09 09:36:52;;;;;;;44.38;19.85;;;0.40;99.90;;;;;;5051967;28;20120;-46
2022/12/09 09:39:18;;;;;;;41.13;19.02;;;0.20;99.90;;;;;;5051833;28;20102;-49
2022/12/09 09:41:51;;;;;;;40.00;18.33;;;0.40;99.90;;;;;;5052020;28;20040;-46
2022/12/09 09:44:34;;;;;;;37.33;18.27;;;0.70;99.90;;;;;;5034400;28;20076;-46
2022/12/09 09:47:01;;;;;;;38.13;18.35;;;0.50;99.90;;;;;;5052648;28;20037;-46
2022/12/09 09:49:51;;;;;;;36.35;18.35;;;0.40;99.90;;;;;;5052241;28;20072;-45
2022/12/09 09:52:24;;;;;;;36.97;17.85;;;0.40;99.90;;;;;;5052486;28;20451;-46
2022/12/09 09:54:51;;;;;;;35.55;17.08;;;0.70;99.90;;;;;;5052430;28;20128;-46
2022/12/09 09:57:36;;;;;;;36.90;18.00;;;0.40;99.90;;;;;;5034562;28;20048;-45
2022/12/09 10:00:11;;;;;;;39.45;18.85;;;0.40;99.90;;;;;;5052110;28;20045;-48
2022/12/09 10:02:57;;;;;;;38.53;18.13;;;0.40;99.90;;;;;;5052161;28;20048;-48
2022/12/09 10:05:36;;;;;;;38.75;18.60;;;0.70;99.90;;;;;;5052666;28;20120;-47
2022/12/09 10:08:04;;;;;;;38.13;18.10;;;0.70;99.90;;;;;;5052340;28;20489;-47
2022/12/09 10:11:04;;;;;;;39.00;18.80;;;0.50;99.90;;;;;;5052442;28;20045;-45
2022/12/09 10:13:56;;;;;;;40.00;18.65;;;0.80;99.90;;;;;;5052323;28;20090;-48
2022/12/09 10:16:25;;;;;;;;;;;0.40;99.90;;;;;;5052700;28;20037;-48
2022/12/09 10:19:07;;;;;;;38.63;18.52;;;0.80;99.90;;;;;;5052270;28;19927;-45
2022/12/09 10:21:39;;;;;;;37.70;17.75;;;0.50;99.90;;;;;;5052145;28;20040;-46
2022/12/09 10:24:33;;;;;;;39.35;18.33;;;0.60;99.90;;;;;;5052356;28;20381;-47
2022/12/09 10:27:11;;;;;;;36.45;18.92;;;0.50;99.90;;;;;;5034550;28;20068;-45
2022/12/09 10:29:45;;;;;;;38.22;19.85;;;0.70;99.90;;;;;;5051850;28;20090;-47
2022/12/09 10:32:18;;;;;;;36.58;17.88;;;0.50;99.90;;;;;;5052340;28;20472;-44
2022/12/09 10:34:46;;;;;;;36.92;18.35;;;0.50;99.90;;;;;;5051968;28;20140;-44
2022/12/09 10:37:28;;;;;;;39.40;19.00;;;0.70;99.90;;;;;;5034302;28;20076;-45
2022/12/09 10:40:06;;;;;;;40.65;20.15;;;0.70;99.90;;;;;;5052122;28;20126;-45
2022/12/09 10:45:47;;;;;;;36.80;17.92;;;0.60;99.90;;;;;;5040279;28;20051;-45
2022/12/09 10:48:28;;;;;;;38.03;19.33;;;0.70;99.90;;;;;;5042058;28;20537;-46
2022/12/09 10:50:56;;;;;;;39.80;19.73;;;0.90;99.90;;;;;;5037588;28;20489;-45
2022/12/09 10:53:23;;;;;;;39.20;18.83;;;0.80;99.90;;;;;;5032290;28;20081;-45
2022/12/09 10:55:52;;;;;;;36.30;18.42;;;0.70;99.90;;;;;;5036316;28;20048;-44
2022/12/09 10:58:26;;;;;;;39.63;19.02;;;1.00;99.90;;;;;;5051843;28;20045;-44
2022/12/09 11:01:01;;;;;;;37.75;18.45;;;0.80;99.90;;;;;;5033850;28;20591;-44
2022/12/09 11:03:33;;;;;;;37.67;18.02;;;1.10;99.90;;;;;;5033879;28;20049;-44
2022/12/09 11:06:39;;;;;;;37.15;19.40;;;0.70;99.90;;;;;;5052084;28;20037;-44
2022/12/09 11:09:05;;;;;;;34.13;17.05;;;0.70;99.90;;;;;;5051686;28;20120;-44
2022/12/09 11:11:46;;;;;;;38.05;18.98;;;1.10;99.90;;;;;;5051924;28;20127;-46
2022/12/09 11:14:21;;;;;;;34.72;17.88;;;0.80;99.90;;;;;;5055458;28;20106;-44
2022/12/09 11:17:32;;;;;;;37.55;18.15;;;0.70;99.90;;;;;;5048437;28;20048;-44
2022/12/09 11:20:03;;;;;;;32.67;17.15;;;0.80;99.90;;;;;;4946033;29;20043;-44
2022/12/09 11:22:40;;;;;;;37.38;18.42;;;0.80;99.90;;;;;;5022036;28;20400;-45
2022/12/09 11:25:25;;;;;;;37.67;18.13;;;1.10;99.90;;;;;;5035478;28;20528;-46
2022/12/09 11:27:58;;;;;;;41.63;18.85;;;1.30;99.90;;;;;;5035411;28;20445;-44
2022/12/09 11:30:34;;;;;;;;;;;1.10;99.90;;;;;;5035987;28;20069;-45
2022/12/09 11:33:26;;;;;;;38.42;19.10;;;1.00;99.90;;;;;;5017608;28;19916;-45
2022/12/09 11:35:56;;;;;;;35.43;17.97;;;0.90;99.90;;;;;;5024464;28;20124;-44
2022/12/09 11:38:27;;;;;;;37.22;18.85;;;1.10;99.90;;;;;;5035123;28;20041;-44
2022/12/09 11:41:06;;;;;;;39.03;19.02;;;1.20;99.90;;;;;;5035527;28;20029;-44
2022/12/09 11:43:40;;;;;;;35.88;18.33;;;1.00;99.90;;;;;;5035346;28;20433;-45
2022/12/09 11:46:21;;;;;;;38.38;18.77;;;0.90;99.90;;;;;;5035228;28;20044;-46
2022/12/09 11:49:04;;;;;;;36.60;18.58;;;0.90;99.90;;;;;;5035305;28;20076;-45
2022/12/09 11:51:34;;;;;;;36.78;17.85;;;1.00;99.90;;;;;;5035303;28;20041;-45
2022/12/09 11:54:19;;;;;;;41.70;18.17;;;1.00;99.90;;;;;;5044274;28;20037;-45
2022/12/09 11:56:49;;;;;;;34.33;17.88;;;1.10;99.90;;;;;;5043470;28;20440;-44
2022/12/09 11:59:29;;;;;;;42.08;20.08;;;0.80;99.90;;;;;;5045509;28;20052;-45
2022/12/09 12:02:24;;;;;;;36.13;18.92;;;0.80;99.90;;;;;;5044165;28;20111;-44
2022/12/09 12:05:08;;;;;;;38.78;18.15;;;0.70;99.90;;;;;;5025681;28;20029;-45
2022/12/09 12:08:15;;;;;;;37.40;19.42;;;0.70;99.90;;;;;;5022738;28;20094;-44
2022/12/09 12:10:59;;;;;;;41.03;19.98;;;0.70;99.90;;;;;;5002184;28;20528;-47
2022/12/09 12:13:35;;;;;;;38.78;19.35;;;0.70;99.90;;;;;;5034710;28;20509;-44
2022/12/09 12:16:30;;;;;;;38.90;18.92;;;1.00;99.90;;;;;;5016955;28;20052;-46
2022/12/09 12:19:29;;;;;;;41.95;21.10;;;0.70;99.90;;;;;;5034481;28;20462;-44
2022/12/09 12:22:22;;;;;;;41.40;19.42;;;1.10;99.90;;;;;;5028568;28;20045;-44
2022/12/09 12:25:18;;;;;;;37.30;19.35;;;0.60;99.90;;;;;;5034387;28;20084;-45
2022/12/09 12:28:17;;;;;;;41.25;20.17;;;0.90;99.90;;;;;;5034430;28;20048;-44
2022/12/09 12:31:27;;;;;;;43.97;20.20;;;0.90;99.90;;;;;;5034646;28;20033;-44
2022/12/09 12:34:17;;;;;;;44.35;21.35;;;0.90;99.90;;;;;;4979222;28;20379;-45
2022/12/09 12:37:16;;;;;;;43.58;20.60;;;0.60;99.90;;;;;;5018817;28;20363;-45
2022/12/09 12:40:01;;;;;;;43.58;21.02;;;0.80;99.90;;;;;;5037917;28;20045;-44
2022/12/09 12:46:15;;;;;;;46.50;22.13;;;0.70;99.90;;;;;;5046825;28;20037;-44
2022/12/09 12:48:36;;;;;;;48.80;22.60;;;0.90;99.90;;;;;;5043420;28;20067;-44
2022/12/09 12:51:04;;;;;;;47.55;22.25;;;1.10;99.90;;;;;;5036605;28;20037;-45
2022/12/09 12:53:35;;;;;;;42.72;21.48;;;1.00;99.90;;;;;;5044617;28;20037;-45
2022/12/09 12:56:41;;;;;;;46.53;21.15;;;1.00;99.90;;;;;;5043092;28;20128;-49
2022/12/09 12:59:28;;;;;;;47.65;20.85;;;1.20;99.90;;;;;;5018099;28;20053;-46